createdAt,value
2022-07-28T00:00:27.307Z,67.45
2022-07-28T00:02:53.312Z,67.12
2022-07-28T00:05:19.345Z,66.99
2022-07-28T00:07:45.838Z,66.73
2022-07-28T00:10:11.785Z,67.08
2022-07-28T00:12:37.775Z,66.51
2022-07-28T00:15:04.510Z,67.15
2022-07-28T00:17:31.121Z,67.42
2022-07-28T00:19:57.183Z,67.35
2022-07-28T00:22:24.112Z,67.53
2022-07-28T00:24:50.095Z,67.30
2022-07-28T00:27:18.902Z,66.66
2022-07-28T00:29:50.236Z,66.35
2022-07-28T00:32:16.729Z,66.56
2022-07-28T00:34:42.817Z,66.41
2022-07-28T00:37:08.784Z,67.02
2022-07-28T00:39:39.491Z,66.90
2022-07-28T00:42:05.423Z,66.74
2022-07-28T00:44:31.373Z,66.77
2022-07-28T00:46:57.414Z,67.03
2022-07-28T00:49:23.431Z,66.71
2022-07-28T00:51:49.415Z,66.57
2022-07-28T00:54:15.689Z,66.21
2022-07-28T00:56:42.000Z,66.62
2022-07-28T00:59:07.929Z,66.12
2022-07-28T01:01:33.971Z,66.32
2022-07-28T01:03:59.956Z,66.00
2022-07-28T01:06:25.903Z,66.15
2022-07-28T01:08:51.892Z,67.14
2022-07-28T01:11:18.319Z,68.08
2022-07-28T01:13:44.959Z,67.12
2022-07-28T01:16:11.921Z,69.80
2022-07-28T01:18:38.250Z,68.95
2022-07-28T01:21:04.991Z,68.78
2022-07-28T01:23:31.875Z,68.60
2022-07-28T01:25:57.828Z,68.64
2022-07-28T01:28:23.766Z,68.40
2022-07-28T01:30:49.810Z,67.95
2022-07-28T01:33:15.810Z,67.60
2022-07-28T01:35:41.759Z,67.57
2022-07-28T01:38:07.739Z,67.50
2022-07-28T01:40:33.679Z,67.15
2022-07-28T01:42:59.616Z,67.84
2022-07-28T01:45:25.600Z,67.14
2022-07-28T01:47:51.895Z,67.96
2022-07-28T01:50:17.888Z,68.42
2022-07-28T01:52:44.126Z,68.80
2022-07-28T01:55:10.064Z,68.24
2022-07-28T01:57:36.031Z,68.46
2022-07-28T02:00:02.020Z,68.06
2022-07-28T02:02:27.977Z,69.47
2022-07-28T02:04:54.691Z,69.38
2022-07-28T02:07:21.599Z,69.45
2022-07-28T02:09:47.555Z,70.15
2022-07-28T02:12:13.512Z,69.50
2022-07-28T02:14:39.707Z,69.73
2022-07-28T02:17:05.655Z,69.89
2022-07-28T02:19:31.596Z,69.64
2022-07-28T02:21:57.587Z,70.33
2022-07-28T02:24:24.258Z,70.27
2022-07-28T02:26:50.217Z,69.60
2022-07-28T02:29:33.865Z,68.53
2022-07-28T02:32:02.148Z,69.84
2022-07-28T02:34:28.175Z,69.72
2022-07-28T02:36:54.138Z,69.68
2022-07-28T02:39:21.073Z,68.87
2022-07-28T02:41:47.069Z,68.87
2022-07-28T02:44:13.234Z,68.96
2022-07-28T02:46:39.405Z,68.65
2022-07-28T02:49:05.510Z,69.88
2022-07-28T02:51:31.500Z,70.84
2022-07-28T02:53:57.445Z,70.88
2022-07-28T02:56:23.432Z,70.75
2022-07-28T02:58:49.381Z,69.49
2022-07-28T03:01:15.703Z,69.76
2022-07-28T03:03:44.119Z,69.83
2022-07-28T03:06:10.214Z,68.85
2022-07-28T03:08:36.165Z,69.47
2022-07-28T03:11:02.153Z,69.37
2022-07-28T03:13:28.096Z,70.44
2022-07-28T03:15:54.041Z,70.37
2022-07-28T03:18:20.042Z,70.29
2022-07-28T03:20:45.979Z,70.73
2022-07-28T03:23:11.913Z,71.43
2022-07-28T03:25:37.896Z,71.75
2022-07-28T03:28:03.849Z,72.20
2022-07-28T03:30:29.837Z,71.47
2022-07-28T03:32:55.843Z,72.05
2022-07-28T03:35:21.796Z,72.00
2022-07-28T03:37:47.725Z,71.27
2022-07-28T03:40:13.702Z,70.51
2022-07-28T03:42:40.209Z,70.82
2022-07-28T03:45:06.950Z,71.00
2022-07-28T03:47:33.755Z,70.75
2022-07-28T03:49:59.746Z,71.20
2022-07-28T03:52:26.045Z,70.46
2022-07-28T03:54:52.094Z,70.13
2022-07-28T03:57:18.027Z,70.09
2022-07-28T03:59:43.969Z,69.68
2022-07-28T04:02:10.042Z,70.36
2022-07-28T04:04:36.002Z,69.71
2022-07-28T04:07:01.963Z,69.56
2022-07-28T04:09:27.944Z,68.59
2022-07-28T04:11:53.884Z,68.40
2022-07-28T04:14:20.098Z,67.94
2022-07-28T04:16:46.510Z,67.50
2022-07-28T04:19:12.526Z,67.35
2022-07-28T04:21:38.467Z,67.73
2022-07-28T04:24:04.478Z,67.70
2022-07-28T04:26:30.426Z,67.67
2022-07-28T04:28:56.388Z,67.69
2022-07-28T04:31:22.485Z,68.99
2022-07-28T04:33:48.486Z,68.78
2022-07-28T04:36:14.427Z,69.42
2022-07-28T04:38:40.411Z,69.50
2022-07-28T04:41:06.351Z,69.14
2022-07-28T04:43:32.292Z,68.34
2022-07-28T04:45:58.359Z,67.85
2022-07-28T04:48:25.075Z,67.48
2022-07-28T04:50:51.799Z,67.72
2022-07-28T04:53:18.739Z,67.72
2022-07-28T04:55:44.713Z,68.23
2022-07-28T04:58:10.706Z,67.76
2022-07-28T05:00:37.121Z,68.01
2022-07-28T05:03:03.079Z,67.67
2022-07-28T05:05:29.024Z,68.76
2022-07-28T05:07:55.007Z,69.52
2022-07-28T05:10:20.955Z,68.58
2022-07-28T05:12:46.903Z,68.04
2022-07-28T05:15:13.733Z,67.85
2022-07-28T05:17:40.489Z,67.02
2022-07-28T05:20:07.123Z,66.35
2022-07-28T05:22:33.153Z,65.99
2022-07-28T05:24:59.433Z,66.32
2022-07-28T05:27:25.378Z,68.16
2022-07-28T05:29:51.821Z,67.38
2022-07-28T05:32:18.235Z,66.79
2022-07-28T05:34:44.420Z,66.87
2022-07-28T05:37:10.397Z,67.03
2022-07-28T05:39:36.342Z,66.79
2022-07-28T05:42:02.312Z,67.60
2022-07-28T05:44:28.308Z,67.33
2022-07-28T05:46:55.127Z,66.18
2022-07-28T05:49:21.130Z,66.02
2022-07-28T05:51:47.241Z,65.91
2022-07-28T05:54:13.418Z,66.41
2022-07-28T05:56:39.601Z,66.82
2022-07-28T05:59:05.579Z,66.58
2022-07-28T06:01:31.593Z,65.78
2022-07-28T06:04:25.713Z,65.78
2022-07-28T06:06:43.554Z,66.83
2022-07-28T06:09:09.519Z,67.22
2022-07-28T06:11:35.450Z,66.41
2022-07-28T06:14:01.522Z,65.49
2022-07-28T06:16:27.789Z,65.39
2022-07-28T06:18:53.857Z,65.58
2022-07-28T06:21:19.853Z,65.47
2022-07-28T06:23:46.049Z,65.32
2022-07-28T06:26:12.018Z,64.59
2022-07-28T06:28:38.285Z,64.53
2022-07-28T06:31:04.296Z,65.24
2022-07-28T06:33:30.239Z,64.95
2022-07-28T06:35:56.241Z,64.82
2022-07-28T06:38:22.575Z,64.62
2022-07-28T06:40:49.232Z,63.70
2022-07-28T06:43:16.274Z,63.13
2022-07-28T06:45:43.005Z,63.22
2022-07-28T06:48:09.745Z,63.93
2022-07-28T06:50:36.696Z,63.13
2022-07-28T06:53:03.334Z,61.99
2022-07-28T06:55:35.244Z,60.99
2022-07-28T06:58:02.656Z,61.96
2022-07-28T07:00:29.327Z,61.96
2022-07-28T07:02:55.931Z,61.11
2022-07-28T07:05:22.221Z,60.33
2022-07-28T07:07:48.615Z,61.07
2022-07-28T07:10:15.140Z,60.33
2022-07-28T07:12:41.801Z,60.90
2022-07-28T07:15:08.254Z,59.88
2022-07-28T07:17:34.363Z,59.72
2022-07-28T07:20:00.899Z,58.33
2022-07-28T07:22:28.058Z,57.72
2022-07-28T07:24:57.132Z,58.76
2022-07-28T07:27:24.743Z,57.93
2022-07-28T07:29:51.301Z,56.67
2022-07-28T07:32:17.547Z,57.18
2022-07-28T07:34:44.362Z,57.19
2022-07-28T07:37:10.876Z,57.03
2022-07-28T07:39:37.522Z,56.92
2022-07-28T07:42:04.285Z,56.91
2022-07-28T07:44:30.775Z,57.83
2022-07-28T07:46:57.356Z,57.68
2022-07-28T07:49:24.238Z,57.13
2022-07-28T07:51:50.622Z,57.61
2022-07-28T07:54:17.598Z,57.30
2022-07-28T07:56:45.402Z,57.43
2022-07-28T07:59:12.210Z,56.53
2022-07-28T08:01:40.469Z,55.59
2022-07-28T08:04:07.792Z,55.53
2022-07-28T08:06:34.844Z,56.07
2022-07-28T08:09:02.298Z,56.19
2022-07-28T08:11:29.310Z,56.02
2022-07-28T08:13:55.574Z,54.89
2022-07-28T08:16:22.312Z,54.26
2022-07-28T08:18:49.090Z,54.11
2022-07-28T08:21:15.449Z,53.14
2022-07-28T08:23:41.658Z,53.31
2022-07-28T08:26:08.685Z,51.45
2022-07-28T08:28:35.321Z,51.68
2022-07-28T08:31:01.858Z,51.69
2022-07-28T08:33:28.728Z,50.74
2022-07-28T08:35:55.179Z,50.29
2022-07-28T08:38:21.569Z,49.20
2022-07-28T08:40:48.304Z,49.33
2022-07-28T08:43:14.949Z,48.74
2022-07-28T08:45:42.297Z,47.29
2022-07-28T08:48:09.787Z,48.78
2022-07-28T08:50:36.558Z,47.40
2022-07-28T08:53:03.039Z,45.98
2022-07-28T08:55:32.036Z,46.67
2022-07-28T08:57:59.073Z,45.31
2022-07-28T09:00:25.523Z,44.92
2022-07-28T09:02:52.540Z,45.94
2022-07-28T09:05:19.297Z,43.01
2022-07-28T09:07:45.539Z,43.18
2022-07-28T09:10:12.235Z,44.84
2022-07-28T09:12:38.836Z,46.28
2022-07-28T09:15:05.563Z,45.05
2022-07-28T09:17:32.365Z,45.23
2022-07-28T09:19:58.780Z,44.78
2022-07-28T09:22:25.558Z,45.37
2022-07-28T09:24:52.040Z,46.74
2022-07-28T09:27:18.486Z,46.00
2022-07-28T09:29:45.140Z,45.20
2022-07-28T09:32:12.085Z,44.74
2022-07-28T09:34:38.828Z,43.27
2022-07-28T09:37:05.528Z,44.61
2022-07-28T09:39:32.427Z,44.69
2022-07-28T09:41:59.096Z,42.98
2022-07-28T09:44:26.247Z,45.03
2022-07-28T09:46:53.216Z,44.20
2022-07-28T09:49:22.812Z,44.50
2022-07-28T09:51:51.867Z,44.50
2022-07-28T09:54:19.028Z,43.25
2022-07-28T09:56:45.937Z,45.23
2022-07-28T09:59:12.843Z,43.07
2022-07-28T10:01:41.835Z,43.35
2022-07-28T10:04:07.802Z,43.13
2022-07-28T10:06:34.161Z,43.33
2022-07-28T10:09:00.737Z,43.36
2022-07-28T10:11:27.426Z,42.19
2022-07-28T10:13:53.801Z,41.21
2022-07-28T10:16:21.034Z,40.55
2022-07-28T10:18:47.199Z,40.41
2022-07-28T10:21:13.913Z,40.63
2022-07-28T10:23:40.567Z,39.21
2022-07-28T10:26:06.566Z,39.87
2022-07-28T10:28:42.313Z,39.18
2022-07-28T10:31:08.944Z,39.51
2022-07-28T10:33:35.359Z,39.32
2022-07-28T10:36:02.079Z,38.76
2022-07-28T10:38:28.478Z,38.08
2022-07-28T10:40:55.080Z,38.79
2022-07-28T10:43:21.505Z,38.47
2022-07-28T10:46:05.081Z,39.72
2022-07-28T10:48:32.072Z,38.44
2022-07-28T10:50:58.895Z,39.92
2022-07-28T10:53:25.508Z,40.01
2022-07-28T10:55:53.269Z,39.44
2022-07-28T10:58:25.075Z,39.02
2022-07-28T11:01:05.540Z,39.68
2022-07-28T11:03:33.157Z,40.58
2022-07-28T11:06:00.200Z,40.85
2022-07-28T11:08:27.522Z,39.82
2022-07-28T11:10:58.912Z,40.65
2022-07-28T11:13:33.877Z,37.89
2022-07-28T11:16:00.747Z,37.75
2022-07-28T11:18:28.577Z,37.21
2022-07-28T11:20:56.384Z,36.78
2022-07-28T11:23:25.463Z,39.17
2022-07-28T11:25:57.066Z,36.62
2022-07-28T11:28:23.798Z,38.43
2022-07-28T11:30:50.611Z,36.87
2022-07-28T11:33:16.935Z,36.80
2022-07-28T11:35:43.560Z,36.88
2022-07-28T11:38:10.190Z,36.26
2022-07-28T11:40:36.360Z,38.26
2022-07-28T11:43:02.889Z,38.31
2022-07-28T11:45:38.813Z,36.93
2022-07-28T11:48:07.632Z,35.44
2022-07-28T11:53:24.912Z,36.65
2022-07-28T11:56:02.544Z,36.01
2022-07-28T11:58:29.460Z,37.13
2022-07-28T12:00:55.911Z,35.65
2022-07-28T12:03:26.125Z,38.29
2022-07-28T12:06:04.635Z,38.62
2022-07-28T12:08:31.823Z,37.15
2022-07-28T12:10:57.853Z,35.41
2022-07-28T12:13:24.325Z,35.81
2022-07-28T12:15:50.379Z,36.24
2022-07-28T12:18:16.372Z,36.59
2022-07-28T12:20:43.107Z,34.26
2022-07-28T12:23:14.949Z,33.54
2022-07-28T12:25:40.930Z,34.31
2022-07-28T12:28:07.067Z,35.57
2022-07-28T12:30:33.930Z,35.33
2022-07-28T12:33:00.870Z,35.86
2022-07-28T12:35:27.871Z,35.76
2022-07-28T12:37:54.245Z,36.39
2022-07-28T12:40:27.608Z,38.36
2022-07-28T12:42:53.969Z,36.61
2022-07-28T12:45:20.718Z,33.76
2022-07-28T12:47:47.170Z,35.82
2022-07-28T12:50:13.947Z,34.51
2022-07-28T12:52:40.146Z,35.22
2022-07-28T12:55:06.619Z,35.99
2022-07-28T12:57:33.376Z,37.20
2022-07-28T12:59:59.903Z,37.65
2022-07-28T13:02:26.251Z,38.66
2022-07-28T13:04:53.678Z,39.42
2022-07-28T13:07:20.162Z,37.52
2022-07-28T13:09:50.163Z,37.10
2022-07-28T13:12:20.122Z,37.13
2022-07-28T13:14:46.781Z,37.22
2022-07-28T13:17:12.730Z,37.66
2022-07-28T13:19:39.637Z,36.28
2022-07-28T13:22:09.357Z,35.50
2022-07-28T13:24:36.076Z,34.56
2022-07-28T13:27:03.641Z,34.96
2022-07-28T13:29:30.249Z,37.27
2022-07-28T13:31:56.984Z,36.49
2022-07-28T13:34:23.724Z,36.58
2022-07-28T13:36:50.422Z,35.61
2022-07-28T13:39:16.888Z,35.06
2022-07-28T13:41:57.401Z,34.98
2022-07-28T13:44:25.408Z,34.61
2022-07-28T13:46:51.880Z,36.69
2022-07-28T13:49:17.877Z,37.23
2022-07-28T13:51:48.173Z,38.72
2022-07-28T13:54:14.966Z,38.33
2022-07-28T13:56:41.475Z,36.00
2022-07-28T13:59:08.759Z,34.95
2022-07-28T14:01:35.636Z,34.36
2022-07-28T14:04:03.312Z,35.58
2022-07-28T14:06:29.502Z,35.45
2022-07-28T14:08:56.503Z,35.66
2022-07-28T14:11:22.830Z,35.65
2022-07-28T14:13:49.340Z,34.85
2022-07-28T14:16:16.029Z,34.41
2022-07-28T14:18:42.452Z,37.52
2022-07-28T14:21:08.425Z,36.18
2022-07-28T14:23:34.683Z,34.70
2022-07-28T14:26:25.175Z,35.74
2022-07-28T14:28:47.572Z,36.01
2022-07-28T14:31:13.575Z,33.84
2022-07-28T14:33:45.583Z,36.04
2022-07-28T14:36:12.512Z,35.51
2022-07-28T14:38:54.594Z,35.70
2022-07-28T14:41:20.670Z,35.50
2022-07-28T14:43:46.606Z,35.62
2022-07-28T14:46:17.790Z,35.24
2022-07-28T14:48:47.444Z,35.12
2022-07-28T14:51:13.411Z,36.80
2022-07-28T14:53:43.387Z,36.08
2022-07-28T14:56:17.929Z,37.46
2022-07-28T14:58:43.873Z,37.87
2022-07-28T15:01:09.844Z,37.01
2022-07-28T15:03:36.599Z,37.52
2022-07-28T15:06:02.685Z,38.74
2022-07-28T15:08:29.428Z,38.31
2022-07-28T15:10:55.599Z,35.99
2022-07-28T15:13:21.551Z,36.99
2022-07-28T15:15:47.581Z,37.70
2022-07-28T15:18:14.554Z,38.56
2022-07-28T15:20:40.519Z,37.67
2022-07-28T15:23:06.495Z,37.06
2022-07-28T15:25:32.491Z,38.28
2022-07-28T15:27:58.587Z,37.11
2022-07-28T15:30:24.531Z,38.10
2022-07-28T15:32:56.904Z,38.41
2022-07-28T15:35:23.215Z,37.48
2022-07-28T15:37:49.203Z,36.60
2022-07-28T15:40:15.189Z,35.92
2022-07-28T15:42:41.163Z,35.42
2022-07-28T15:45:07.124Z,34.98
2022-07-28T15:47:33.109Z,35.81
2022-07-28T15:50:00.789Z,35.68
2022-07-28T15:52:27.646Z,36.79
2022-07-28T15:54:54.378Z,35.32
2022-07-28T15:57:20.385Z,36.01
2022-07-28T15:59:50.157Z,35.79
2022-07-28T16:02:17.693Z,36.59
2022-07-28T16:04:51.467Z,36.31
2022-07-28T16:07:20.267Z,37.10
2022-07-28T16:09:48.436Z,36.88
2022-07-28T16:12:14.601Z,35.36
2022-07-28T16:14:41.888Z,35.44
2022-07-28T16:17:08.110Z,36.49
2022-07-28T16:19:48.649Z,36.34
2022-07-28T16:22:15.777Z,36.49
2022-07-28T16:24:41.706Z,37.59
2022-07-28T16:27:07.643Z,37.85
2022-07-28T16:29:33.631Z,36.31
2022-07-28T16:31:59.580Z,36.36
2022-07-28T16:34:25.529Z,36.90
2022-07-28T16:36:51.532Z,37.48
2022-07-28T16:39:17.484Z,37.19
2022-07-28T16:41:47.441Z,37.25
2022-07-28T16:44:14.438Z,37.85
2022-07-28T16:46:41.388Z,38.20
2022-07-28T16:49:07.428Z,38.47
2022-07-28T16:51:34.093Z,38.51
2022-07-28T16:54:00.031Z,37.89
2022-07-28T16:56:25.971Z,37.87
2022-07-28T16:58:51.956Z,37.56
2022-07-28T17:01:17.938Z,38.09
2022-07-28T17:03:45.447Z,38.18
2022-07-28T17:06:11.485Z,38.34
2022-07-28T17:08:37.440Z,38.51
2022-07-28T17:11:03.380Z,38.50
2022-07-28T17:13:31.503Z,38.11
2022-07-28T17:15:57.502Z,37.15
2022-07-28T17:18:23.480Z,37.07
2022-07-28T17:20:49.463Z,37.37
2022-07-28T17:23:15.398Z,38.43
2022-07-28T17:26:35.542Z,39.02
2022-07-28T17:28:27.946Z,39.67
2022-07-28T17:30:53.969Z,39.34
2022-07-28T17:33:20.654Z,38.95
2022-07-28T17:35:46.631Z,39.17
2022-07-28T17:38:12.638Z,39.47
2022-07-28T17:40:38.584Z,39.31
2022-07-28T17:43:06.113Z,39.39
2022-07-28T17:45:32.369Z,39.32
2022-07-28T17:47:59.016Z,39.71
2022-07-28T17:50:25.034Z,40.39
2022-07-28T17:52:50.988Z,40.78
2022-07-28T17:55:16.951Z,40.96
2022-07-28T17:57:46.032Z,41.48
2022-07-28T18:00:12.942Z,41.55
2022-07-28T18:02:38.948Z,41.68
2022-07-28T18:05:06.331Z,42.00
2022-07-28T18:07:48.572Z,42.16
2022-07-28T18:10:17.325Z,42.48
2022-07-28T18:12:50.856Z,44.11
2022-07-28T18:15:16.806Z,44.59
2022-07-28T18:17:54.860Z,44.49
2022-07-28T18:20:21.770Z,44.71
2022-07-28T18:22:47.791Z,44.97
2022-07-28T18:25:13.724Z,45.30
2022-07-28T18:27:39.760Z,44.83
2022-07-28T18:30:07.159Z,45.90
2022-07-28T18:32:33.099Z,45.02
2022-07-28T18:34:59.063Z,45.58
2022-07-28T18:37:25.050Z,45.46
2022-07-28T18:39:50.997Z,46.65
2022-07-28T18:42:16.940Z,46.61
2022-07-28T18:44:44.602Z,46.67
2022-07-28T18:47:11.263Z,47.15
2022-07-28T18:49:38.156Z,46.72
2022-07-28T18:52:04.236Z,47.03
2022-07-28T18:54:30.341Z,47.07
2022-07-28T18:56:56.418Z,47.06
2022-07-28T18:59:22.407Z,48.54
2022-07-28T19:01:48.426Z,48.35
2022-07-28T19:04:14.604Z,49.05
2022-07-28T19:06:40.811Z,49.01
2022-07-28T19:09:06.866Z,48.72
2022-07-28T19:11:32.806Z,49.36
2022-07-28T19:13:58.887Z,49.97
2022-07-28T19:16:24.922Z,49.74
2022-07-28T19:18:50.920Z,50.34
2022-07-28T19:21:18.318Z,50.12
2022-07-28T19:23:44.278Z,50.71
2022-07-28T19:26:10.213Z,50.33
2022-07-28T19:28:36.200Z,50.21
2022-07-28T19:31:10.644Z,50.98
2022-07-28T19:33:36.874Z,51.15
2022-07-28T19:36:08.896Z,50.87
2022-07-28T19:38:34.843Z,50.80
2022-07-28T19:41:00.823Z,50.75
2022-07-28T19:43:26.900Z,50.83
2022-07-28T19:45:52.901Z,50.17
2022-07-28T19:48:20.233Z,50.68
2022-07-28T19:50:50.894Z,50.83
2022-07-28T19:53:17.232Z,51.23
2022-07-28T19:55:43.247Z,51.37
2022-07-28T19:58:16.778Z,50.71
2022-07-28T20:00:42.748Z,51.51
2022-07-28T20:03:13.569Z,50.83
2022-07-28T20:05:54.681Z,52.52
2022-07-28T20:11:11.293Z,53.18
2022-07-28T20:13:37.291Z,52.43
2022-07-28T20:16:03.237Z,52.74
2022-07-28T20:18:29.184Z,52.23
2022-07-28T20:20:55.337Z,52.80
2022-07-28T20:23:21.297Z,52.28
2022-07-28T20:25:48.037Z,52.41
2022-07-28T20:28:14.013Z,52.66
2022-07-28T20:30:40.112Z,51.89
2022-07-28T20:33:06.117Z,51.89
2022-07-28T20:35:32.862Z,52.92
2022-07-28T20:37:58.837Z,52.68
2022-07-28T20:40:24.776Z,52.44
2022-07-28T20:42:53.131Z,53.06
2022-07-28T20:45:19.422Z,52.76
2022-07-28T20:47:45.373Z,52.43
2022-07-28T20:50:11.376Z,52.87
2022-07-28T20:52:37.331Z,53.14
2022-07-28T20:55:03.270Z,53.20
2022-07-28T20:57:29.340Z,53.45
2022-07-28T20:59:55.275Z,53.06
2022-07-28T21:02:22.018Z,53.12
2022-07-28T21:04:50.274Z,53.06
2022-07-28T21:07:16.614Z,54.23
2022-07-28T21:10:02.958Z,54.46
2022-07-28T21:12:28.897Z,54.64
2022-07-28T21:14:54.882Z,54.89
2022-07-28T21:17:20.901Z,54.92
2022-07-28T21:19:51.329Z,55.41
2022-07-28T21:22:19.181Z,54.85
2022-07-28T21:24:45.166Z,54.62
2022-07-28T21:27:11.855Z,54.35
2022-07-28T21:29:37.809Z,55.33
2022-07-28T21:32:05.955Z,55.06
2022-07-28T21:34:32.113Z,54.96
2022-07-28T21:37:00.318Z,55.80
2022-07-28T21:39:27.462Z,55.85
2022-07-28T21:41:53.404Z,56.04
2022-07-28T21:44:19.358Z,56.10
2022-07-28T21:46:45.360Z,56.03
2022-07-28T21:49:11.406Z,56.07
2022-07-28T21:51:37.392Z,56.10
2022-07-28T21:54:03.416Z,56.11
2022-07-28T21:56:29.405Z,56.59
2022-07-28T21:58:55.343Z,56.53
2022-07-28T22:01:21.381Z,56.20
2022-07-28T22:03:47.344Z,56.79
2022-07-28T22:06:13.280Z,56.63
2022-07-28T22:08:39.267Z,56.65
2022-07-28T22:11:05.217Z,56.73
2022-07-28T22:13:31.164Z,56.96
2022-07-28T22:15:57.140Z,57.09
2022-07-28T22:18:23.074Z,57.46
2022-07-28T22:20:49.010Z,57.25
2022-07-28T22:23:28.633Z,57.05
2022-07-28T22:25:55.336Z,58.80
2022-07-28T22:28:29.993Z,57.91
2022-07-28T22:30:56.485Z,58.05
2022-07-28T22:33:23.329Z,58.11
2022-07-28T22:35:49.283Z,57.66
2022-07-28T22:38:15.221Z,57.89
2022-07-28T22:40:41.199Z,57.95
2022-07-28T22:43:07.137Z,57.87
2022-07-28T22:45:49.539Z,57.19
2022-07-28T22:48:17.427Z,57.08
2022-07-28T22:50:43.369Z,57.30
2022-07-28T22:53:09.317Z,57.43
2022-07-28T22:58:19.663Z,57.21
2022-07-28T23:00:45.792Z,56.97
2022-07-28T23:03:15.153Z,56.64
2022-07-28T23:05:41.969Z,56.81
2022-07-28T23:08:08.004Z,56.69
2022-07-28T23:10:36.577Z,57.03
2022-07-28T23:13:02.580Z,57.53
2022-07-28T23:15:39.751Z,57.80
2022-07-28T23:18:07.413Z,58.00
2022-07-28T23:20:33.454Z,57.40
2022-07-28T23:22:59.452Z,58.27
2022-07-28T23:25:25.462Z,58.03
2022-07-28T23:27:51.489Z,58.29
2022-07-28T23:30:17.470Z,58.13
2022-07-28T23:32:43.453Z,57.86
2022-07-28T23:35:09.508Z,57.60
2022-07-28T23:37:35.500Z,57.84
2022-07-28T23:40:01.843Z,57.51
2022-07-28T23:42:27.880Z,57.30
2022-07-28T23:44:53.880Z,57.08
2022-07-28T23:47:19.914Z,57.53
2022-07-28T23:49:45.980Z,57.53
2022-07-28T23:52:11.962Z,57.30
2022-07-28T23:54:37.969Z,57.41
2022-07-28T23:57:04.013Z,57.27
2022-07-28T23:59:30.031Z,57.16
